Time;durP1;ratioP1;P1;durP2;ratioP2;P2;SDS_P1;SDS_P2;PMS_P1;PMS_P2;Temp;Humidity;BMP_temperature;BMP_pressure;BME280_temperature;BME280_humidity;BME280_pressure;Samples;Min_cycle;Max_cycle;Signal;HPM_P1;HPM_P2
2021/05/23 00:02:00;;;;;;;10.45;5.35;;;;;;;9.97;60.77;99747.20;2122866;83;30293;-61
2021/05/23 00:05:04;;;;;;;9.45;5.47;;;;;;;9.91;61.03;99740.39;2122843;83;27700;-61
2021/05/23 00:08:11;;;;;;;10.77;5.27;;;;;;;9.82;61.29;99742.26;2124529;82;28739;-62
2021/05/23 00:11:13;;;;;;;10.53;4.67;;;;;;;9.73;61.53;99748.49;2122761;83;31199;-62
2021/05/23 00:14:17;;;;;;;9.75;6.08;;;;;;;9.65;61.73;99745.84;2122709;83;34268;-63
2021/05/23 00:17:19;;;;;;;11.53;5.70;;;;;;;9.61;61.77;99745.16;2123014;83;29524;-60
2021/05/23 00:20:23;;;;;;;12.25;6.08;;;;;;;9.58;61.82;99746.66;2123768;82;28491;-61
2021/05/23 00:23:26;;;;;;;9.38;4.97;;;;;;;9.54;62.26;99745.97;2123010;83;29065;-62
2021/05/23 00:26:28;;;;;;;11.60;5.20;;;;;;;9.50;62.22;99744.89;2122954;83;31038;-61
2021/05/23 00:29:30;;;;;;;7.65;4.58;;;;;;;9.44;62.50;99744.72;2125436;82;33348;-63
2021/05/23 00:32:31;;;;;;;7.65;4.50;;;;;;;9.41;62.67;99746.25;2122974;83;29844;-62
2021/05/23 00:35:34;;;;;;;8.23;4.90;;;;;;;9.36;62.81;99738.94;2122962;83;27614;-62
2021/05/23 00:38:36;;;;;;;11.12;5.70;;;;;;;9.32;63.05;99746.73;2122733;83;29796;-62
2021/05/23 00:41:37;;;;;;;14.13;5.05;;;;;;;9.27;63.16;99745.64;2140103;82;32281;-62
2021/05/23 00:44:39;;;;;;;6.90;4.20;;;;;;;9.21;63.35;99745.95;2146941;82;33346;-63
2021/05/23 00:47:42;;;;;;;7.67;4.10;;;;;;;9.16;63.33;99747.55;2149811;82;30438;-62
2021/05/23 00:50:44;;;;;;;8.15;4.50;;;;;;;9.13;63.39;99753.05;2145104;82;27655;-62
2021/05/23 00:53:46;;;;;;;7.97;4.20;;;;;;;9.10;63.67;99754.08;2149532;82;30000;-62
2021/05/23 00:56:48;;;;;;;9.78;4.12;;;;;;;9.05;63.64;99756.12;2146757;82;30981;-61
2021/05/23 00:59:50;;;;;;;10.35;4.22;;;;;;;9.02;63.88;99761.61;2149685;82;33700;-62
2021/05/23 01:02:54;;;;;;;10.50;4.08;;;;;;;8.97;63.91;99760.52;2124712;82;29343;-62
2021/05/23 01:06:08;;;;;;;8.78;3.87;;;;;;;8.95;64.08;99760.22;2102996;82;27641;-62
2021/05/23 01:09:10;;;;;;;8.28;3.58;;;;;;;8.91;64.05;99771.55;2149719;82;28690;-62
2021/05/23 01:12:29;;;;;;;9.90;4.58;;;;;;;8.87;64.44;99767.75;2149575;82;32200;-62
2021/05/23 01:15:39;;;;;;;11.97;4.33;;;;;;;8.84;64.33;99780.80;2149761;82;34185;-61
2021/05/23 01:19:14;;;;;;;9.95;5.58;;;;;;;8.81;64.57;99774.28;2148671;82;29680;-62
2021/05/23 01:22:42;;;;;;;7.95;4.33;;;;;;;8.79;64.64;99772.16;2149908;82;27575;-62
2021/05/23 01:25:46;;;;;;;8.35;4.33;;;;;;;8.76;64.61;99778.52;2063188;86;29087;-62
2021/05/23 01:28:58;;;;;;;6.08;3.83;;;;;;;8.74;64.74;99772.87;2044106;87;30491;-61
2021/05/23 01:32:01;;;;;;;7.15;3.98;;;;;;;8.67;64.77;99768.32;2008169;88;33162;-62
2021/05/23 01:35:08;;;;;;;10.72;3.60;;;;;;;8.63;64.92;99770.26;1980177;88;29707;-62
2021/05/23 01:38:13;;;;;;;7.15;3.85;;;;;;;8.58;65.05;99769.64;1977849;88;27723;-61
2021/05/23 01:41:16;;;;;;;8.20;4.45;;;;;;;8.50;65.12;99771.36;2030628;86;29557;-62
2021/05/23 01:44:18;;;;;;;9.28;4.12;;;;;;;8.43;65.16;99770.38;2026907;87;31496;-62
2021/05/23 01:47:20;;;;;;;9.60;4.05;;;;;;;8.40;65.34;99771.38;2026711;87;32952;-62
2021/05/23 01:50:23;;;;;;;8.55;3.77;;;;;;;8.35;65.58;99770.76;2032020;87;29463;-62
2021/05/23 01:53:25;;;;;;;8.80;4.50;;;;;;;8.29;65.61;99771.89;2031791;87;27700;-62
2021/05/23 01:56:28;;;;;;;7.45;3.98;;;;;;;8.25;65.62;99773.45;2031840;87;29857;-62
2021/05/23 01:59:30;;;;;;;7.58;4.60;;;;;;;8.19;65.68;99765.28;2031482;87;31034;-62
2021/05/23 02:02:32;;;;;;;7.62;4.08;;;;;;;8.17;65.96;99774.71;2107796;82;33851;-62
2021/05/23 02:05:42;;;;;;;10.45;4.40;;;;;;;8.11;66.01;99773.66;2170587;82;30432;-62
2021/05/23 02:08:45;;;;;;;7.78;4.10;;;;;;;8.05;65.96;99780.16;2169279;82;27625;-62
2021/05/23 02:11:48;;;;;;;7.65;3.95;;;;;;;8.02;65.93;99786.97;2170532;82;29819;-62
2021/05/23 02:14:50;;;;;;;8.08;4.10;;;;;;;8.00;66.15;99793.33;2170754;82;32128;-62
2021/05/23 02:17:52;;;;;;;8.40;3.98;;;;;;;7.92;66.14;99792.36;2155507;82;34114;-64
2021/05/23 02:20:54;;;;;;;6.10;3.42;;;;;;;7.87;66.41;99789.88;2123438;83;30511;-62
2021/05/23 02:23:57;;;;;;;9.33;3.85;;;;;;;7.85;66.39;99805.56;2145600;82;27566;-62
2021/05/23 02:26:59;;;;;;;11.45;4.90;;;;;;;7.83;66.70;99801.65;2125292;82;29500;-61
2021/05/23 02:30:00;;;;;;;10.80;4.37;;;;;;;7.81;66.59;99808.85;2145615;82;32093;-61
2021/05/23 02:33:05;;;;;;;6.92;4.20;;;;;;;7.79;66.75;99809.84;2123481;83;33345;-61
2021/05/23 02:36:06;;;;;;;8.63;5.30;;;;;;;7.75;66.82;99808.67;2146061;82;29751;-61
2021/05/23 02:39:08;;;;;;;6.20;3.75;;;;;;;7.70;66.85;99812.00;2123650;83;27588;-61
2021/05/23 02:42:10;;;;;;;8.13;4.00;;;;;;;7.66;67.07;99814.41;2130109;82;28597;-62
2021/05/23 02:45:14;;;;;;;9.28;4.37;;;;;;;7.64;67.13;99823.42;2147866;82;31392;-61
2021/05/23 02:48:17;;;;;;;7.90;3.70;;;;;;;7.60;67.25;99828.88;2109563;84;33741;-61
2021/05/23 02:51:19;;;;;;;9.55;5.08;;;;;;;7.58;67.14;99825.42;2147819;82;30423;-62
2021/05/23 02:54:21;;;;;;;9.55;4.33;;;;;;;7.58;67.23;99830.75;2140925;82;27613;-61
2021/05/23 02:57:23;;;;;;;9.43;3.98;;;;;;;7.58;67.24;99829.89;2124316;82;29474;-61
2021/05/23 03:00:25;;;;;;;7.50;4.12;;;;;;;7.56;67.29;99837.09;2138704;82;32058;-62
2021/05/23 03:03:27;;;;;;;8.63;3.90;;;;;;;7.55;67.16;99834.88;2147755;82;32930;-61
2021/05/23 03:06:29;;;;;;;9.43;4.00;;;;;;;7.55;67.19;99829.55;2129594;82;30443;-61
2021/05/23 03:09:31;;;;;;;7.60;4.03;;;;;;;7.56;67.16;99826.43;2124546;82;27568;-61
2021/05/23 03:12:33;;;;;;;10.08;4.08;;;;;;;7.57;67.26;99824.16;2122725;83;29797;-61
2021/05/23 03:15:35;;;;;;;11.30;4.80;;;;;;;7.58;67.24;99823.23;2122915;83;31385;-61
2021/05/23 03:18:37;;;;;;;8.53;3.90;;;;;;;7.57;67.16;99826.83;2124110;82;32977;-61
2021/05/23 03:21:39;;;;;;;7.35;4.28;;;;;;;7.58;67.47;99824.08;2123036;83;30291;-61
2021/05/23 03:24:40;;;;;;;12.00;5.67;;;;;;;7.59;67.42;99823.16;2123010;83;27922;-61
2021/05/23 03:27:43;;;;;;;7.37;3.72;;;;;;;7.62;67.41;99828.80;2122968;83;29771;-61
2021/05/23 03:30:45;;;;;;;7.67;4.00;;;;;;;7.65;67.43;99833.15;2122918;83;31067;-61
2021/05/23 03:33:47;;;;;;;9.58;4.03;;;;;;;7.67;67.65;99831.28;2124218;82;33777;-60
2021/05/23 03:36:49;;;;;;;15.72;4.22;;;;;;;7.70;67.72;99834.66;2122963;83;29712;-61
2021/05/23 03:39:51;;;;;;;7.00;3.80;;;;;;;7.74;67.70;99830.05;2123124;83;27898;-61
2021/05/23 03:42:53;;;;;;;10.63;3.70;;;;;;;7.80;67.74;99839.12;2133217;82;28664;-60
2021/05/23 03:45:55;;;;;;;8.55;3.72;;;;;;;7.84;67.91;99843.38;2159639;82;31402;-61
2021/05/23 03:48:57;;;;;;;5.25;3.22;;;;;;;7.89;67.98;99849.34;2163437;81;34065;-60
2021/05/23 03:51:58;;;;;;;7.70;4.00;;;;;;;7.91;68.06;99854.15;2121703;83;29337;-61
2021/05/23 03:55:00;;;;;;;8.43;4.08;;;;;;;7.99;68.10;99857.80;2122247;83;27643;-61
2021/05/23 03:58:03;;;;;;;8.13;4.45;;;;;;;8.06;68.08;99855.70;2121133;83;29028;-62
2021/05/23 04:01:05;;;;;;;6.83;3.52;;;;;;;8.14;68.09;99860.23;2186050;81;31021;-60
2021/05/23 04:04:10;;;;;;;8.15;4.60;;;;;;;8.23;68.17;99850.05;2121320;83;33162;-60
2021/05/23 04:07:13;;;;;;;6.45;3.85;;;;;;;8.33;68.30;99868.22;2189115;81;30430;-61
2021/05/23 04:10:17;;;;;;;8.98;4.53;;;;;;;8.46;68.33;99872.97;2121521;83;27698;-61
2021/05/23 04:13:22;;;;;;;6.97;4.53;;;;;;;8.58;68.37;99869.77;2189019;80;29640;-61
2021/05/23 04:16:22;;;;;;;7.22;4.03;;;;;;;8.73;68.52;99885.50;2189032;80;32129;-61
2021/05/23 04:19:24;;;;;;;15.48;4.17;;;;;;;8.84;68.63;99887.65;2186138;81;33242;-61
2021/05/23 04:22:25;;;;;;;12.43;3.60;;;;;;;8.99;68.47;99887.83;2186286;81;29681;-62
2021/05/23 04:25:27;;;;;;;6.72;3.83;;;;;;;9.17;68.29;99898.94;2189254;81;27569;-62
2021/05/23 04:28:29;;;;;;;7.95;3.55;;;;;;;9.39;68.14;99909.39;2185876;81;30801;-62
2021/05/23 04:31:32;;;;;;;6.72;3.67;;;;;;;9.60;68.32;99913.25;2158489;82;32117;-61
2021/05/23 04:34:38;;;;;;;7.35;4.05;;;;;;;9.81;68.20;99908.58;2159007;81;32891;-62
2021/05/23 04:37:39;;;;;;;12.45;3.92;;;;;;;10.40;69.04;99911.29;2158777;82;30440;-62
2021/05/23 04:40:41;;;;;;;7.30;3.58;;;;;;;11.67;68.78;99907.55;2159090;82;27703;-62
2021/05/23 04:43:43;;;;;;;6.03;3.60;;;;;;;13.13;68.11;99895.69;2155623;82;28646;-63
2021/05/23 04:46:45;;;;;;;7.85;3.37;;;;;;;14.55;66.96;99886.83;2149546;82;31531;-62
2021/05/23 04:49:46;;;;;;;5.08;3.45;;;;;;;15.61;65.01;99871.75;2149629;82;33617;-64
2021/05/23 04:52:48;;;;;;;7.47;3.15;;;;;;;16.57;63.43;99873.64;2149787;82;29748;-63
2021/05/23 04:55:50;;;;;;;5.87;3.15;;;;;;;17.21;62.06;99871.16;2149927;82;27722;-64
2021/05/23 04:58:51;;;;;;;6.85;2.83;;;;;;;18.20;60.95;99868.94;2149721;82;28891;-63
2021/05/23 05:01:53;;;;;;;4.12;2.62;;;;;;;19.18;60.01;99841.66;2146917;82;31366;-63
2021/05/23 05:04:55;;;;;;;5.28;3.08;;;;;;;20.52;58.55;99860.62;2149913;82;34103;-64
2021/05/23 05:07:57;;;;;;;3.33;2.67;;;;;;;21.59;56.09;99854.01;2145216;82;29350;-64
2021/05/23 05:11:00;;;;;;;6.92;2.40;;;;;;;22.56;54.52;99855.27;2147486;82;27552;-64
2021/05/23 05:14:02;;;;;;;5.83;2.33;;;;;;;23.51;52.85;99855.42;2149014;81;28614;-64
2021/05/23 05:17:04;;;;;;;3.85;2.27;;;;;;;24.30;51.14;99845.73;2120826;82;32075;-64
2021/05/23 05:20:08;;;;;;;5.65;2.85;;;;;;;25.17;49.84;99849.34;2148185;82;32130;-64
2021/05/23 05:23:11;;;;;;;5.05;2.83;;;;;;;25.92;48.09;99857.29;2123958;82;30028;-64
2021/05/23 05:26:12;;;;;;;4.75;2.52;;;;;;;26.59;46.18;99858.75;2149854;82;27639;-64
2021/05/23 05:29:14;;;;;;;5.87;2.80;;;;;;;27.08;44.32;99861.86;2145165;82;29154;-64
2021/05/23 05:32:16;;;;;;;4.92;2.45;;;;;;;27.48;43.53;99862.30;2150003;82;31039;-64
2021/05/23 05:35:18;;;;;;;5.83;2.40;;;;;;;27.75;42.10;99860.61;2146935;82;34116;-64
2021/05/23 05:38:20;;;;;;;5.67;2.50;;;;;;;28.11;41.63;99859.30;2149706;82;29660;-64
2021/05/23 05:41:23;;;;;;;4.35;2.25;;;;;;;28.44;39.99;99862.77;2147054;82;27698;-62
2021/05/23 05:44:25;;;;;;;4.97;2.30;;;;;;;28.83;39.14;99859.02;2126232;82;29348;-64
2021/05/23 05:47:27;;;;;;;3.90;2.12;;;;;;;29.15;38.40;99856.00;2105411;84;32017;-63
2021/05/23 05:50:29;;;;;;;5.50;2.72;;;;;;;29.40;37.38;99867.31;2144863;83;33667;-64
2021/05/23 05:53:31;;;;;;;6.45;2.27;;;;;;;29.68;36.18;99871.80;2144853;83;29870;-64
2021/05/23 05:56:33;;;;;;;5.28;2.30;;;;;;;29.86;35.49;99866.16;2144942;82;27621;-63
2021/05/23 05:59:35;;;;;;;3.72;1.95;;;;;;;29.75;34.33;99868.17;2118696;83;29761;-64
2021/05/23 06:02:37;;;;;;;6.15;2.35;;;;;;;29.60;33.66;99860.95;2144885;83;31370;-64
2021/05/23 06:05:39;;;;;;;2.98;1.77;;;;;;;29.72;33.25;99862.55;2118729;83;33473;-63
2021/05/23 06:08:40;;;;;;;4.87;2.33;;;;;;;29.86;32.61;99873.06;2144991;83;29676;-63
2021/05/23 06:11:42;;;;;;;2.67;1.62;;;;;;;30.03;31.89;99885.91;2118993;84;27648;-63
2021/05/23 06:14:45;;;;;;;4.40;2.00;;;;;;;30.28;31.62;99898.52;2144862;82;28430;-63
2021/05/23 06:17:47;;;;;;;4.28;1.67;;;;;;;30.48;30.91;99894.84;2117199;84;32083;-63
2021/05/23 06:20:49;;;;;;;3.08;1.72;;;;;;;30.11;29.86;99889.84;2144892;83;32995;-62
2021/05/23 06:23:51;;;;;;;2.45;1.50;;;;;;;29.54;29.74;99897.68;2118917;83;30319;-63
2021/05/23 06:26:53;;;;;;;3.17;1.87;;;;;;;29.00;29.84;99901.70;2144999;83;27671;-63
2021/05/23 06:29:55;;;;;;;5.15;1.80;;;;;;;28.36;29.71;99898.22;2118619;84;29158;-63
2021/05/23 06:32:57;;;;;;;4.05;1.90;;;;;;;28.02;29.70;99902.63;2145101;83;31373;-62
2021/05/23 06:35:59;;;;;;;4.60;2.10;;;;;;;28.00;29.82;99904.73;2118775;84;34089;-62
2021/05/23 06:39:01;;;;;;;6.83;1.67;;;;;;;27.94;29.91;99904.14;2144956;82;29107;-61
2021/05/23 06:42:04;;;;;;;5.03;1.98;;;;;;;28.07;30.35;99908.91;2118766;84;27649;-62
2021/05/23 06:45:07;;;;;;;3.30;1.70;;;;;;;28.14;29.48;99913.95;2172154;81;29749;-61
2021/05/23 06:48:11;;;;;;;4.55;1.67;;;;;;;28.28;29.86;99907.50;2186113;81;30416;-61
2021/05/23 06:51:13;;;;;;;5.25;1.82;;;;;;;28.26;29.33;99915.63;2146713;82;32992;-61
2021/05/23 06:54:15;;;;;;;4.35;1.70;;;;;;;27.93;29.02;99923.09;2159907;82;30413;-61
2021/05/23 06:57:17;;;;;;;4.17;2.10;;;;;;;27.52;28.98;99915.88;2159980;82;28122;-62
2021/05/23 07:00:21;;;;;;;5.87;1.80;;;;;;;27.23;29.52;99920.95;2159903;82;29016;-62
2021/05/23 07:03:23;;;;;;;5.58;1.85;;;;;;;26.98;29.55;99921.28;2159771;82;31552;-61
2021/05/23 07:06:26;;;;;;;2.60;1.22;;;;;;;26.71;29.58;99912.69;2159789;82;34249;-62
2021/05/23 07:09:27;;;;;;;3.98;1.47;;;;;;;26.31;29.88;99922.62;2159965;82;30098;-61
2021/05/23 07:12:29;;;;;;;5.15;1.55;;;;;;;26.05;29.74;99928.02;2186407;81;27929;-62
2021/05/23 07:15:31;;;;;;;3.90;1.67;;;;;;;25.68;29.54;99925.61;2121366;83;29361;-62
2021/05/23 07:18:33;;;;;;;2.60;1.27;;;;;;;25.34;29.71;99925.50;2121427;82;31350;-62
2021/05/23 07:21:35;;;;;;;3.62;1.50;;;;;;;25.22;29.81;99927.80;2121638;83;33324;-62
2021/05/23 07:24:37;;;;;;;5.80;1.40;;;;;;;25.14;30.13;99936.92;2121465;83;29797;-62
2021/05/23 07:27:39;;;;;;;2.83;1.20;;;;;;;25.26;30.27;99934.63;2121923;82;27612;-62
2021/05/23 07:30:41;;;;;;;2.62;1.20;;;;;;;25.27;30.01;99939.58;2121492;83;29505;-62
2021/05/23 07:33:43;;;;;;;2.47;1.50;;;;;;;25.02;30.22;99935.10;2121445;83;32035;-62
2021/05/23 07:36:44;;;;;;;2.72;1.15;;;;;;;24.83;30.11;99939.66;2189135;81;33314;-75
2021/05/23 07:39:46;;;;;;;4.37;1.98;;;;;;;24.52;30.20;99944.05;2185944;81;29302;-75
2021/05/23 07:42:47;;;;;;;4.80;2.42;;;;;;;24.41;30.58;99954.85;2146667;82;28067;-76
2021/05/23 07:45:49;;;;;;;3.20;1.20;;;;;;;24.43;30.80;99956.91;2159656;81;28596;-77
2021/05/23 07:48:51;;;;;;;2.10;1.30;;;;;;;24.84;31.14;99942.73;2187101;81;31641;-78
2021/05/23 07:51:53;;;;;;;3.70;1.65;;;;;;;25.48;30.76;99948.05;2186398;81;33042;-78
2021/05/23 07:54:55;;;;;;;3.35;1.47;;;;;;;26.01;30.43;99944.52;2185975;81;29315;-78
2021/05/23 07:57:56;;;;;;;2.75;1.47;;;;;;;26.52;30.61;99947.11;2186154;81;27621;-78
2021/05/23 08:00:58;;;;;;;2.15;1.20;;;;;;;26.55;29.01;99954.98;2188612;80;29585;-77
2021/05/23 08:04:00;;;;;;;3.92;1.40;;;;;;;25.93;29.07;99950.08;2121017;82;30977;-75
2021/05/23 08:07:02;;;;;;;1.80;1.12;;;;;;;25.82;29.59;99959.59;2185827;81;33667;-74
2021/05/23 08:10:08;;;;;;;3.17;1.27;;;;;;;26.15;29.65;99949.72;2146303;82;30030;-76
2021/05/23 08:13:10;;;;;;;2.12;1.25;;;;;;;26.59;29.32;99959.56;2159109;82;27622;-79
2021/05/23 08:16:12;;;;;;;4.22;1.12;;;;;;;26.99;29.00;99947.73;2159694;82;28669;-77
2021/05/23 08:19:15;;;;;;;1.90;1.12;;;;;;;27.32;29.01;99951.39;2159666;82;31041;-78
2021/05/23 08:22:17;;;;;;;3.58;1.25;;;;;;;27.55;28.54;99945.73;2159645;82;32928;-74
2021/05/23 08:25:18;;;;;;;4.15;1.27;;;;;;;27.61;27.89;99942.74;2159716;82;30054;-79
2021/05/23 08:28:22;;;;;;;2.45;0.75;;;;;;;27.71;28.16;99946.54;2159767;82;27638;-72
2021/05/23 08:31:25;;;;;;;2.12;1.17;;;;;;;27.89;28.33;99965.33;2160008;82;28815;-69
2021/05/23 08:34:27;;;;;;;1.92;1.10;;;;;;;28.07;28.06;99970.33;2159189;82;31757;-69
2021/05/23 08:37:29;;;;;;;3.25;0.90;;;;;;;27.90;27.24;99972.53;2181859;81;33669;-72
2021/05/23 08:40:31;;;;;;;1.82;1.22;;;;;;;27.19;27.52;99987.00;2187865;81;29316;-73
2021/05/23 08:43:35;;;;;;;1.30;0.88;;;;;;;26.76;27.35;99996.80;2185493;81;27596;-72
2021/05/23 08:46:37;;;;;;;5.33;1.05;;;;;;;26.45;27.72;99995.59;2147955;82;28698;-59
2021/05/23 08:49:39;;;;;;;3.72;0.90;;;;;;;26.31;28.07;99995.39;2145047;83;31240;-60
2021/05/23 08:52:41;;;;;;;2.17;0.88;;;;;;;26.06;28.24;99994.20;2145320;82;33295;-60
2021/05/23 08:55:45;;;;;;;2.30;1.17;;;;;;;25.87;28.05;100002.44;2145195;83;29674;-60
2021/05/23 08:58:47;;;;;;;3.07;0.80;;;;;;;25.66;27.97;100006.37;2145193;83;27629;-59
2021/05/23 09:01:51;;;;;;;2.90;0.95;;;;;;;25.15;28.39;100003.59;2145123;83;29038;-59
2021/05/23 09:04:55;;;;;;;2.67;1.00;;;;;;;24.73;28.73;100011.96;2119023;84;31018;-80
2021/05/23 09:07:59;;;;;;;1.10;0.90;;;;;;;24.48;29.08;100017.98;2144906;83;33017;-82
2021/05/23 09:11:04;;;;;;;4.05;1.00;;;;;;;24.24;29.21;100018.35;2145270;83;29315;-77
2021/05/23 09:14:07;;;;;;;3.20;1.50;;;;;;;23.98;29.32;100019.93;2145316;83;27559;-83
2021/05/23 09:17:24;;;;;;;2.65;1.12;;;;;;;23.80;29.82;100016.81;2145131;82;29400;-61
2021/05/23 09:20:30;;;;;;;3.08;1.40;;;;;;;23.70;29.78;100017.47;2108783;84;31397;-60
2021/05/23 09:23:59;;;;;;;4.12;2.10;;;;;;;23.59;30.09;100027.37;2104589;84;30360;-62
2021/05/23 09:27:05;;;;;;;3.20;1.75;;;;;;;23.63;30.78;100020.55;2108373;84;29356;-61
2021/05/23 09:30:16;;;;;;;2.40;1.02;;;;;;;23.65;30.87;100023.98;2139706;83;27558;-61
2021/05/23 09:33:22;;;;;;;2.52;1.22;;;;;;;23.73;31.00;100032.17;2144641;82;28610;-60
2021/05/23 09:36:24;;;;;;;4.47;1.27;;;;;;;23.80;30.76;100035.96;2145034;82;30888;-60
2021/05/23 09:39:38;;;;;;;1.87;0.95;;;;;;;23.77;30.76;100036.30;2145004;83;33464;-60
2021/05/23 09:42:49;;;;;;;3.00;0.90;;;;;;;23.83;30.85;100047.06;2145007;83;29361;-60
2021/05/23 09:45:53;;;;;;;4.50;1.50;;;;;;;23.84;30.99;100048.78;2149807;82;28108;-60
2021/05/23 09:48:55;;;;;;;2.95;1.20;;;;;;;23.73;30.60;100055.42;2160132;82;28652;-61
2021/05/23 09:52:03;;;;;;;2.62;1.10;;;;;;;23.52;30.64;100049.91;2159970;82;30838;-61
2021/05/23 09:55:07;;;;;;;3.17;1.57;;;;;;;23.39;30.98;100047.33;2159948;82;34257;-60
2021/05/23 09:58:19;;;;;;;3.75;1.60;;;;;;;23.20;31.31;100056.11;2159941;82;30037;-60
2021/05/23 10:01:32;;;;;;;2.08;1.07;;;;;;;23.10;31.34;100062.20;2159975;82;27609;-60
2021/05/23 10:04:35;;;;;;;4.12;1.25;;;;;;;22.90;31.46;100060.58;2159788;81;29832;-61
2021/05/23 10:07:37;;;;;;;2.52;1.32;;;;;;;22.75;31.68;100066.30;2159623;82;31028;-61
2021/05/23 10:10:39;;;;;;;3.40;1.15;;;;;;;22.60;31.99;100066.89;2158960;82;34115;-60
2021/05/23 10:13:41;;;;;;;4.42;1.17;;;;;;;22.46;32.19;100071.58;2159724;82;29418;-60
2021/05/23 10:16:44;;;;;;;4.30;1.07;;;;;;;22.32;32.58;100072.96;2159934;82;27741;-60
2021/05/23 10:19:46;;;;;;;2.08;1.22;;;;;;;22.22;33.13;100083.97;2159836;82;29383;-59
2021/05/23 10:22:56;;;;;;;3.67;2.05;;;;;;;22.10;33.38;100083.34;2159932;82;30858;-62
2021/05/23 10:26:01;;;;;;;4.42;1.05;;;;;;;21.96;33.22;100073.86;2132690;82;32961;-61
2021/05/23 10:29:04;;;;;;;6.28;1.57;;;;;;;21.79;33.29;100073.35;2132669;82;29323;-61
2021/05/23 10:32:17;;;;;;;3.30;1.35;;;;;;;21.64;33.74;100082.06;2160250;82;27666;-61
2021/05/23 10:35:34;;;;;;;3.85;1.55;;;;;;;21.52;34.13;100084.60;2159887;82;28617;-61
2021/05/23 10:38:40;;;;;;;2.70;1.30;;;;;;;21.42;34.17;100090.63;2076104;85;31056;-59
2021/05/23 10:41:42;;;;;;;3.40;1.40;;;;;;;21.25;34.49;100074.08;2088881;84;33072;-61
2021/05/23 10:44:52;;;;;;;4.00;1.12;;;;;;;21.10;34.88;100056.00;2099271;84;30047;-61
2021/05/23 10:47:56;;;;;;;4.37;1.37;;;;;;;21.05;35.17;100073.32;2076804;85;27643;-61
2021/05/23 10:50:58;;;;;;;2.27;1.25;;;;;;;21.18;35.53;100064.30;2076846;85;28655;-61
2021/05/23 10:54:13;;;;;;;1.70;0.90;;;;;;;21.36;35.24;100066.21;2076718;85;31017;-61
2021/05/23 10:57:16;;;;;;;1.82;1.00;;;;;;;21.48;35.31;100060.89;2075653;85;34228;-60
2021/05/23 11:00:27;;;;;;;3.92;1.30;;;;;;;21.70;35.35;100068.31;1969008;90;27846;-62
2021/05/23 11:03:31;;;;;;;3.12;1.52;;;;;;;21.90;35.39;100062.20;1877232;94;28248;-60
2021/05/23 11:06:41;;;;;;;2.80;1.87;;;;;;;22.04;34.73;100064.02;1874893;94;44135;-61
2021/05/23 11:09:43;;;;;;;4.25;2.98;;;;;;;22.12;34.72;100058.66;1877275;94;31405;-61
2021/05/23 11:13:01;;;;;;;4.45;1.82;;;;;;;22.25;35.30;100060.98;1858453;94;33347;-61
2021/05/23 11:16:17;;;;;;;4.00;1.52;;;;;;;22.51;35.52;100056.08;1865002;94;29457;-61
2021/05/23 11:19:36;;;;;;;4.42;1.65;;;;;;;22.80;35.24;100054.88;1844304;96;27702;-62
2021/05/23 11:22:38;;;;;;;5.15;1.95;;;;;;;23.01;34.98;100052.61;1803224;98;28686;-60
2021/05/23 11:25:41;;;;;;;5.72;1.82;;;;;;;23.19;35.39;100048.92;1814469;95;31910;-60
2021/05/23 11:28:50;;;;;;;6.65;1.87;;;;;;;23.34;35.46;100051.41;1857145;95;27870;-61
2021/05/23 11:31:56;;;;;;;4.25;1.75;;;;;;;23.53;35.21;100046.67;1839394;95;28776;-61
2021/05/23 11:34:59;;;;;;;2.62;1.47;;;;;;;23.70;35.10;100048.08;1857446;95;27741;-62
2021/05/23 11:38:02;;;;;;;4.58;1.57;;;;;;;23.84;34.94;100033.73;1800716;98;30598;-61
2021/05/23 11:41:06;;;;;;;6.55;1.42;;;;;;;23.87;34.67;100025.19;1803699;98;31095;-61
2021/05/23 11:44:16;;;;;;;5.35;1.40;;;;;;;23.87;34.07;100030.66;1803403;98;32978;-61
2021/05/23 11:47:18;;;;;;;4.33;1.98;;;;;;;23.80;33.94;100035.09;1815765;95;29726;-61
2021/05/23 11:50:25;;;;;;;2.52;1.80;;;;;;;23.70;34.38;100026.20;1808401;97;27896;-61
2021/05/23 11:53:45;;;;;;;3.72;1.85;;;;;;;23.63;33.36;100031.48;1824038;97;28737;-62
2021/05/23 11:56:49;;;;;;;8.33;2.30;;;;;;;23.36;33.62;100026.63;1837643;95;32219;-61
2021/05/23 11:59:57;;;;;;;5.33;2.17;;;;;;;23.23;34.07;100024.39;1855647;95;33846;-60
2021/05/23 12:02:59;;;;;;;3.42;1.77;;;;;;;23.14;34.03;100030.30;1828779;97;29357;-61
2021/05/23 12:06:01;;;;;;;3.77;1.22;;;;;;;23.05;34.06;100026.67;1888220;90;27724;-61
2021/05/23 12:09:24;;;;;;;2.70;2.00;;;;;;;22.86;33.31;100019.58;2010366;86;29479;-61
2021/05/23 12:12:28;;;;;;;3.37;1.60;;;;;;;22.73;33.41;100030.97;2079607;85;27616;-61
2021/05/23 12:15:30;;;;;;;4.00;2.00;;;;;;;22.73;33.72;100027.36;2056297;85;34212;-61
2021/05/23 12:18:56;;;;;;;6.53;2.20;;;;;;;22.79;34.03;100028.58;2112340;81;30469;-61
2021/05/23 12:21:57;;;;;;;2.87;1.75;;;;;;;22.85;34.28;100028.78;2189456;81;27602;-61
2021/05/23 12:25:11;;;;;;;2.90;1.65;;;;;;;22.95;34.01;100038.23;2160167;81;29817;-61
2021/05/23 12:28:13;;;;;;;2.57;1.50;;;;;;;22.95;34.09;100040.12;2189569;81;30973;-61
2021/05/23 12:31:21;;;;;;;3.20;2.15;;;;;;;23.09;33.75;100031.30;2160153;81;34186;-61
2021/05/23 12:34:23;;;;;;;4.33;1.90;;;;;;;23.21;33.86;100031.89;2187288;81;29662;-59
2021/05/23 12:37:25;;;;;;;2.42;1.20;;;;;;;23.34;33.89;100031.40;2189467;81;27694;-60
2021/05/23 12:40:39;;;;;;;3.98;1.70;;;;;;;23.33;33.80;100036.55;2161155;80;28664;-60
2021/05/23 12:43:41;;;;;;;5.67;3.62;;;;;;;23.46;33.88;100030.58;2214875;80;32054;-62
2021/05/23 12:46:46;;;;;;;7.33;4.53;;;;;;;23.59;33.83;100034.20;2173987;80;33335;-61
2021/05/23 12:49:47;;;;;;;;;;;;;;;23.67;33.59;100041.05;2109535;83;29459;-60
2021/05/23 12:52:53;;;;;;;3.92;1.10;;;;;;;23.73;33.14;100023.97;2120484;83;27842;-60
2021/05/23 12:55:59;;;;;;;4.40;1.55;;;;;;;23.74;33.34;100033.05;2120439;83;28737;-60
2021/05/23 12:59:07;;;;;;;3.52;1.05;;;;;;;23.83;33.01;100034.23;2101108;84;32118;-59
2021/05/23 13:02:11;;;;;;;5.92;1.07;;;;;;;23.95;32.30;100034.75;2118066;82;32339;-60
2021/05/23 13:05:18;;;;;;;2.80;1.20;;;;;;;24.01;32.42;100044.19;2118690;84;30083;-60
2021/05/23 13:08:21;;;;;;;2.70;1.10;;;;;;;24.02;32.31;100050.53;2118869;83;27668;-60
2021/05/23 13:11:23;;;;;;;2.90;1.00;;;;;;;23.97;31.87;100051.89;2118699;84;29158;-61
2021/05/23 13:14:27;;;;;;;1.82;1.00;;;;;;;23.95;31.64;100052.54;2118664;84;31058;-61
2021/05/23 13:17:43;;;;;;;2.95;1.15;;;;;;;23.89;31.53;100043.66;2129095;82;32964;-60
2021/05/23 13:20:44;;;;;;;1.85;1.32;;;;;;;23.84;31.73;100039.20;2165446;81;29349;-60
2021/05/23 13:23:49;;;;;;;2.60;1.60;;;;;;;23.79;31.76;100047.05;2083463;84;27684;-60
2021/05/23 13:27:03;;;;;;;2.80;0.93;;;;;;;23.72;31.96;100050.98;2109711;82;28645;-60
2021/05/23 13:30:07;;;;;;;3.50;2.10;;;;;;;23.70;32.14;100049.45;2111712;84;30955;-61
2021/05/23 13:33:08;;;;;;;3.90;1.40;;;;;;;23.66;32.01;100053.87;2147955;82;32355;-61
2021/05/23 13:36:15;;;;;;;5.78;2.33;;;;;;;23.64;31.76;100049.61;2109787;84;30447;-61
2021/05/23 13:39:17;;;;;;;3.85;1.60;;;;;;;23.59;32.09;100051.98;2147199;82;28072;-61
2021/05/23 13:42:22;;;;;;;3.15;1.30;;;;;;;23.55;31.69;100049.23;2146931;82;29881;-61
2021/05/23 13:45:23;;;;;;;;;;;;;;;23.47;31.78;100056.41;2124362;82;31265;-61
2021/05/23 13:48:26;;;;;;;3.05;1.47;;;;;;;23.30;31.61;100058.74;2150083;82;33322;-61
2021/05/23 13:51:28;;;;;;;5.87;1.50;;;;;;;23.15;31.77;100066.17;2159961;82;29453;-61
2021/05/23 13:54:31;;;;;;;4.42;1.75;;;;;;;22.99;31.70;100064.73;2160080;82;27638;-61
2021/05/23 13:57:35;;;;;;;3.17;1.82;;;;;;;22.83;32.00;100066.36;2159449;82;28997;-60
2021/05/23 14:00:40;;;;;;;4.37;1.60;;;;;;;22.63;32.05;100068.44;2188599;81;28613;-60
2021/05/23 14:03:42;;;;;;;2.55;1.70;;;;;;;22.45;32.43;100072.59;2188972;81;32932;-60
2021/05/23 14:06:46;;;;;;;3.40;1.80;;;;;;;22.30;32.48;100073.63;2166545;81;30462;-61
2021/05/23 14:09:48;;;;;;;4.47;1.30;;;;;;;22.15;32.78;100075.55;2120939;83;27831;-61
2021/05/23 14:12:50;;;;;;;2.87;1.92;;;;;;;21.95;32.61;100085.78;2121643;82;29617;-61
2021/05/23 14:15:53;;;;;;;5.20;2.00;;;;;;;21.77;33.09;100097.19;2121594;83;32144;-61
2021/05/23 14:18:55;;;;;;;2.90;1.80;;;;;;;21.59;33.42;100099.87;2121627;82;34186;-61
2021/05/23 14:21:57;;;;;;;1.90;1.00;;;;;;;21.39;33.31;100102.70;2160173;81;29833;-61
2021/05/23 14:25:04;;;;;;;4.10;1.62;;;;;;;21.15;33.11;100105.45;2159996;82;27462;-61